createdAt,value
2023-01-13T01:53:30.047Z,67.11
2023-01-13T01:56:19.767Z,66.73
2023-01-13T03:45:50.815Z,74.16
2023-01-13T03:51:29.892Z,74.30
2023-01-13T04:00:22.280Z,75.16
2023-01-13T04:03:40.363Z,74.74
2023-01-13T04:06:46.981Z,74.43
2023-01-13T04:10:00.219Z,74.32
2023-01-13T04:13:22.824Z,74.34
2023-01-13T04:16:12.721Z,74.26
2023-01-13T04:19:14.882Z,74.30
2023-01-13T04:22:28.432Z,74.32
2023-01-13T04:25:34.806Z,74.49
2023-01-13T04:31:40.744Z,74.79
2023-01-13T04:34:42.575Z,74.74
2023-01-13T04:37:33.101Z,74.92
2023-01-13T04:40:37.783Z,75.10
2023-01-13T04:43:48.687Z,75.17
2023-01-13T04:49:26.832Z,75.13
2023-01-13T04:55:07.933Z,75.10
2023-01-13T05:00:48.740Z,75.33
2023-01-13T05:04:03.173Z,75.48
2023-01-13T05:09:43.046Z,75.58
2023-01-13T05:12:55.750Z,75.49
2023-01-13T05:15:44.017Z,75.42
2023-01-13T05:18:45.620Z,75.45
2023-01-13T05:24:52.586Z,75.39
2023-01-13T07:06:27.690Z,74.49
2023-01-13T07:09:17.730Z,74.63
2023-01-13T07:12:29.796Z,74.56
2023-01-13T07:15:31.669Z,74.56
2023-01-13T07:18:36.081Z,74.58
2023-01-13T07:21:27.652Z,74.53
2023-01-13T07:24:29.722Z,74.56
2023-01-13T07:30:53.731Z,74.60
2023-01-13T07:39:47.845Z,74.40
2023-01-13T07:42:56.375Z,74.14
2023-01-13T07:48:50.761Z,74.25
2023-01-13T07:51:54.591Z,74.05
2023-01-13T07:54:44.749Z,74.09
2023-01-13T08:00:23.753Z,73.90
2023-01-13T08:03:35.497Z,73.85
2023-01-13T08:06:39.727Z,73.56
2023-01-13T08:16:23.454Z,73.23
2023-01-13T08:21:50.704Z,73.13
2023-01-13T08:24:52.848Z,73.13
2023-01-13T08:27:55.218Z,72.88
2023-01-13T11:36:25.230Z,63.03
2023-01-13T11:40:20.957Z,62.97
2023-01-13T11:54:07.505Z,62.11
2023-01-13T11:58:14.624Z,62.11
2023-01-13T12:05:01.255Z,62.15
2023-01-13T12:21:52.710Z,62.17
2023-01-13T12:25:40.615Z,62.19
2023-01-13T12:29:34.113Z,62.65
2023-01-13T12:36:16.875Z,62.44
2023-01-13T13:25:37.996Z,62.99
2023-01-13T13:29:15.108Z,63.40
2023-01-13T13:33:14.152Z,63.39
2023-01-13T13:36:32.911Z,63.40
2023-01-13T13:40:25.180Z,63.23
2023-01-13T13:43:18.955Z,63.46
2023-01-13T13:47:09.099Z,63.44
2023-01-13T13:50:12.375Z,63.38
2023-01-13T13:54:06.085Z,63.38
2023-01-13T13:59:46.752Z,63.68
2023-01-13T14:02:48.584Z,63.81
2023-01-13T14:06:08.590Z,63.74
2023-01-13T14:09:45.125Z,63.61
2023-01-13T14:16:22.088Z,63.37
2023-01-13T14:20:31.468Z,63.33
2023-01-13T14:28:10.792Z,63.78
2023-01-13T14:34:48.540Z,63.64
2023-01-13T14:38:44.299Z,63.88
2023-01-13T14:44:59.899Z,64.09
2023-01-13T14:48:44.754Z,63.99
2023-01-13T14:54:59.002Z,64.15
2023-01-13T14:58:54.025Z,64.20
2023-01-13T15:02:46.076Z,64.34
2023-01-13T15:30:58.746Z,65.04
2023-01-13T15:34:20.652Z,65.07
2023-01-13T15:37:25.076Z,65.29
2023-01-13T15:41:04.920Z,65.12
2023-01-13T15:44:50.962Z,65.55
2023-01-13T15:48:38.780Z,65.83
2023-01-13T15:52:26.575Z,66.34
2023-01-13T15:56:17.540Z,66.88
2023-01-13T16:00:09.424Z,67.16
2023-01-13T16:03:57.735Z,67.35
2023-01-13T16:07:45.729Z,67.50
2023-01-13T16:11:34.114Z,67.54
2023-01-13T16:15:23.548Z,67.82
2023-01-13T16:19:06.844Z,68.01
2023-01-13T16:22:59.787Z,68.04
2023-01-13T16:26:49.856Z,68.16
2023-01-13T16:55:07.028Z,67.65
2023-01-13T16:58:22.811Z,67.73
2023-01-13T17:16:53.100Z,68.18
2023-01-13T17:20:10.160Z,68.35
2023-01-13T17:29:28.020Z,68.87
2023-01-13T17:32:30.598Z,69.15
2023-01-13T17:35:26.770Z,69.27
2023-01-13T17:38:48.857Z,69.38
2023-01-13T17:53:57.183Z,70.06
2023-01-13T18:03:08.331Z,70.45
2023-01-13T18:09:33.970Z,70.76
2023-01-13T18:16:19.320Z,71.43
2023-01-13T18:19:43.776Z,72.03
2023-01-13T18:23:27.484Z,72.43
2023-01-13T18:27:12.851Z,72.82
2023-01-13T18:30:12.537Z,72.82
2023-01-13T18:39:59.474Z,73.30
2023-01-13T18:45:37.874Z,73.16
2023-01-13T18:48:43.815Z,73.53
2023-01-13T18:52:16.053Z,73.98
2023-01-13T18:55:24.635Z,73.60
2023-01-13T18:58:48.784Z,74.44
2023-01-13T19:05:48.147Z,73.95
2023-01-13T19:11:33.473Z,74.38
2023-01-13T19:14:55.572Z,74.26
2023-01-13T19:18:45.401Z,74.51
2023-01-13T19:22:28.466Z,75.84
2023-01-13T19:26:12.788Z,75.50
2023-01-13T19:30:02.596Z,75.70
2023-01-13T19:36:51.914Z,75.79
2023-01-13T19:43:38.640Z,75.82
2023-01-13T19:46:41.610Z,76.02
2023-01-13T19:53:07.854Z,75.49
2023-01-13T19:59:18.805Z,75.81
2023-01-13T20:02:38.480Z,75.95
2023-01-13T20:05:33.044Z,76.07
2023-01-13T20:09:08.885Z,76.05
2023-01-13T20:12:31.211Z,76.11
2023-01-13T20:19:04.956Z,75.94
2023-01-13T20:22:56.400Z,75.98
2023-01-13T20:26:45.372Z,76.27
2023-01-13T20:33:44.516Z,77.67
2023-01-13T20:36:59.690Z,77.64
2023-01-13T21:02:00.433Z,77.61
2023-01-13T21:08:10.911Z,77.89
2023-01-13T21:15:10.915Z,77.69
2023-01-13T21:55:37.542Z,78.29
2023-01-13T21:58:52.207Z,78.37
2023-01-13T22:29:07.068Z,78.45
2023-01-13T22:32:12.866Z,78.31
2023-01-13T23:20:44.245Z,78.12
2023-01-13T23:24:26.933Z,78.14
2023-01-13T23:28:15.641Z,78.16
2023-01-13T23:32:09.446Z,78.05
2023-01-13T23:35:57.926Z,78.02
2023-01-13T23:39:45.655Z,78.05
2023-01-13T23:43:34.263Z,78.18
2023-01-13T23:47:21.936Z,78.16
2023-01-13T23:54:31.066Z,77.97
2023-01-13T23:57:55.746Z,77.96
